createdAt,value
2022-11-29T00:00:45.968Z,1.65
2022-11-29T00:03:12.730Z,1.48
2022-11-29T00:05:39.645Z,1.65
2022-11-29T00:08:06.389Z,1.60
2022-11-29T00:10:37.115Z,1.17
2022-11-29T00:13:04.482Z,1.55
2022-11-29T00:15:31.385Z,1.05
2022-11-29T00:17:58.105Z,0.82
2022-11-29T00:20:24.814Z,0.93
2022-11-29T00:22:51.446Z,1.30
2022-11-29T00:25:18.060Z,0.93
2022-11-29T00:27:44.812Z,1.00
2022-11-29T00:30:12.077Z,0.95
2022-11-29T00:32:38.713Z,1.20
2022-11-29T00:35:09.680Z,1.00
2022-11-29T00:37:36.927Z,1.08
2022-11-29T00:40:04.922Z,1.60
2022-11-29T00:42:31.985Z,1.45
2022-11-29T00:44:58.597Z,1.60
2022-11-29T00:47:25.234Z,1.65
2022-11-29T00:49:51.819Z,1.38
2022-11-29T00:52:18.413Z,1.88
2022-11-29T00:54:45.514Z,1.77
2022-11-29T00:57:12.502Z,1.98
2022-11-29T00:59:39.252Z,2.20
2022-11-29T01:02:05.942Z,2.28
2022-11-29T01:04:32.644Z,1.85
2022-11-29T01:06:59.313Z,2.40
2022-11-29T01:09:26.094Z,2.45
2022-11-29T01:11:52.876Z,2.75
2022-11-29T01:14:19.605Z,3.03
2022-11-29T01:16:46.272Z,3.00
2022-11-29T01:19:12.963Z,2.10
2022-11-29T01:21:39.641Z,2.75
2022-11-29T01:24:06.318Z,2.55
2022-11-29T01:26:33.184Z,2.58
2022-11-29T01:28:59.882Z,2.30
2022-11-29T01:31:33.654Z,2.80
2022-11-29T01:34:02.415Z,3.13
2022-11-29T01:36:29.434Z,2.70
2022-11-29T01:38:58.667Z,2.80
2022-11-29T01:41:28.196Z,2.97
2022-11-29T01:44:06.195Z,2.80
2022-11-29T01:46:51.064Z,2.72
2022-11-29T01:49:27.199Z,2.97
2022-11-29T01:52:11.258Z,3.55
2022-11-29T01:54:42.210Z,3.28
2022-11-29T01:57:10.162Z,3.53
2022-11-29T01:59:41.783Z,3.20
2022-11-29T02:02:33.610Z,2.78
2022-11-29T02:05:01.538Z,3.97
2022-11-29T02:07:28.233Z,3.75
2022-11-29T02:09:54.880Z,3.05
2022-11-29T02:12:29.389Z,3.00
2022-11-29T02:15:26.272Z,2.53
2022-11-29T02:18:14.821Z,3.17
2022-11-29T02:21:11.754Z,3.05
2022-11-29T02:23:47.451Z,2.70
2022-11-29T02:26:35.725Z,2.67
2022-11-29T02:29:20.676Z,2.80
2022-11-29T02:31:56.734Z,2.58
2022-11-29T02:34:53.509Z,2.70
2022-11-29T02:37:23.048Z,2.92
2022-11-29T02:40:04.989Z,2.60
2022-11-29T02:42:56.269Z,2.80
2022-11-29T02:45:57.369Z,3.13
2022-11-29T02:49:03.877Z,2.83
2022-11-29T02:51:48.057Z,2.53
2022-11-29T02:54:30.214Z,2.67
2022-11-29T02:57:02.905Z,2.25
2022-11-29T02:59:47.645Z,2.30
2022-11-29T03:02:34.857Z,1.90
2022-11-29T03:05:19.172Z,1.67
2022-11-29T03:08:06.951Z,1.98
2022-11-29T03:10:58.725Z,2.25
2022-11-29T03:13:36.509Z,2.10
2022-11-29T03:16:03.299Z,1.90
2022-11-29T03:18:48.433Z,1.92
2022-11-29T03:21:48.833Z,2.25
2022-11-29T03:24:25.778Z,1.77
2022-11-29T03:27:01.599Z,2.30
2022-11-29T03:29:46.391Z,2.33
2022-11-29T03:32:23.688Z,1.80
2022-11-29T03:35:02.962Z,1.90
2022-11-29T03:37:38.689Z,1.15
2022-11-29T03:40:21.657Z,1.67
2022-11-29T03:42:59.414Z,1.55
2022-11-29T03:45:37.323Z,1.52
2022-11-29T03:48:28.673Z,1.80
2022-11-29T03:51:01.436Z,1.40
2022-11-29T03:53:37.181Z,1.48
2022-11-29T03:56:31.835Z,1.35
2022-11-29T03:59:34.965Z,0.90
2022-11-29T04:02:35.367Z,1.48
2022-11-29T04:05:20.436Z,1.20
2022-11-29T04:08:25.744Z,1.13
2022-11-29T04:11:11.113Z,0.95
2022-11-29T04:13:56.025Z,1.05
2022-11-29T04:16:49.774Z,2.03
2022-11-29T04:19:36.745Z,1.38
2022-11-29T04:22:51.516Z,1.40
2022-11-29T04:25:18.163Z,1.40
2022-11-29T04:27:52.658Z,1.35
2022-11-29T04:30:20.876Z,0.90
2022-11-29T04:32:59.296Z,0.90
2022-11-29T04:35:44.731Z,1.73
2022-11-29T04:38:17.389Z,1.10
2022-11-29T04:41:07.873Z,0.88
2022-11-29T04:43:49.660Z,0.70
2022-11-29T04:46:55.539Z,0.70
2022-11-29T04:50:02.886Z,0.95
2022-11-29T04:52:47.719Z,0.52
2022-11-29T04:55:23.801Z,0.70
2022-11-29T04:58:09.298Z,0.50
2022-11-29T05:01:04.003Z,0.60
2022-11-29T05:03:36.609Z,0.73
2022-11-29T05:06:41.040Z,0.40
2022-11-29T05:09:32.851Z,0.68
2022-11-29T05:12:17.921Z,0.77
2022-11-29T05:15:15.205Z,0.70
2022-11-29T05:17:47.818Z,0.90
2022-11-29T05:20:41.991Z,0.88
2022-11-29T05:23:26.867Z,0.70
2022-11-29T05:26:14.723Z,0.50
2022-11-29T05:28:47.624Z,0.60
2022-11-29T05:32:02.418Z,0.50
2022-11-29T05:34:50.900Z,0.75
2022-11-29T05:37:35.947Z,0.47
2022-11-29T05:40:20.874Z,0.50
2022-11-29T05:42:56.475Z,0.88
2022-11-29T05:45:31.033Z,0.63
2022-11-29T05:48:10.159Z,0.60
2022-11-29T05:50:45.877Z,0.80
2022-11-29T05:53:23.768Z,0.43
2022-11-29T05:56:04.494Z,0.68
2022-11-29T05:58:47.996Z,1.17
2022-11-29T06:01:22.449Z,1.00
2022-11-29T06:03:55.130Z,0.68
2022-11-29T06:06:43.020Z,0.82
2022-11-29T06:09:22.111Z,0.95
2022-11-29T06:12:18.147Z,0.80
2022-11-29T06:15:30.596Z,0.80
2022-11-29T06:18:29.040Z,0.77
2022-11-29T06:20:57.109Z,0.80
2022-11-29T06:23:45.469Z,1.42
2022-11-29T06:26:29.279Z,2.22
2022-11-29T06:29:02.014Z,1.98
2022-11-29T06:31:40.099Z,1.95
2022-11-29T06:34:10.025Z,2.42
2022-11-29T06:36:50.770Z,2.67
2022-11-29T06:39:17.698Z,3.50
2022-11-29T06:41:44.872Z,3.38
2022-11-29T06:44:12.003Z,1.95
2022-11-29T06:46:46.597Z,2.30
2022-11-29T06:49:36.660Z,2.88
2022-11-29T06:52:23.710Z,2.53
2022-11-29T06:54:50.315Z,2.30
2022-11-29T06:57:19.608Z,2.35
2022-11-29T07:00:04.538Z,2.75
2022-11-29T07:03:19.180Z,2.40
2022-11-29T07:05:46.799Z,2.10
2022-11-29T07:08:21.914Z,2.25
2022-11-29T07:10:54.077Z,1.98
2022-11-29T07:13:21.550Z,2.00
2022-11-29T07:16:06.826Z,2.92
2022-11-29T07:18:46.175Z,2.13
2022-11-29T07:21:54.270Z,2.63
2022-11-29T07:24:32.899Z,3.45
2022-11-29T07:27:25.725Z,2.50
2022-11-29T07:30:05.183Z,2.42
2022-11-29T07:32:57.270Z,2.42
2022-11-29T07:35:50.806Z,2.10
2022-11-29T07:38:37.411Z,2.88
2022-11-29T07:41:36.159Z,2.47
2022-11-29T07:44:25.595Z,2.10
2022-11-29T07:46:52.535Z,5.30
2022-11-29T07:49:19.335Z,2.90
2022-11-29T07:51:46.329Z,8.18
2022-11-29T07:54:17.482Z,6.25
2022-11-29T07:56:44.128Z,4.50
2022-11-29T07:59:12.461Z,5.05
2022-11-29T08:01:40.133Z,6.45
2022-11-29T08:04:07.880Z,3.60
2022-11-29T08:06:35.972Z,4.40
2022-11-29T08:09:03.881Z,6.82
2022-11-29T08:11:30.796Z,6.05
2022-11-29T08:14:01.888Z,6.43
2022-11-29T08:16:28.670Z,4.82
2022-11-29T08:18:55.407Z,5.07
2022-11-29T08:21:22.492Z,4.68
2022-11-29T08:23:50.471Z,4.80
2022-11-29T08:26:18.988Z,5.68
2022-11-29T08:28:46.180Z,6.20
2022-11-29T08:31:13.962Z,4.95
2022-11-29T08:33:42.716Z,4.97
2022-11-29T08:36:12.808Z,4.93
2022-11-29T08:38:40.165Z,5.07
2022-11-29T08:41:12.974Z,6.60
2022-11-29T08:43:40.258Z,7.05
2022-11-29T08:46:07.050Z,8.82
2022-11-29T08:48:36.054Z,8.23
2022-11-29T08:51:03.923Z,6.25
2022-11-29T08:53:42.890Z,4.85
2022-11-29T08:56:59.620Z,3.33
2022-11-29T08:58:59.334Z,7.97
2022-11-29T09:01:26.429Z,3.65
2022-11-29T09:04:07.249Z,4.30
2022-11-29T09:06:45.609Z,2.92
2022-11-29T09:09:12.627Z,2.50
2022-11-29T09:11:39.306Z,3.33
2022-11-29T09:14:08.206Z,2.30
2022-11-29T09:16:37.827Z,2.17
2022-11-29T09:19:05.551Z,2.13
2022-11-29T09:21:34.836Z,2.38
2022-11-29T09:24:05.565Z,2.13
2022-11-29T09:26:36.027Z,1.70
2022-11-29T09:29:05.465Z,2.80
2022-11-29T09:31:33.274Z,5.80
2022-11-29T09:34:00.261Z,3.50
2022-11-29T09:36:29.121Z,3.45
2022-11-29T09:38:56.902Z,1.35
2022-11-29T09:41:48.930Z,1.23
2022-11-29T09:44:33.960Z,1.33
2022-11-29T09:47:26.425Z,1.10
2022-11-29T09:50:20.021Z,2.08
2022-11-29T09:53:05.016Z,2.72
2022-11-29T09:55:40.851Z,1.42
2022-11-29T09:58:13.952Z,1.00
2022-11-29T10:00:49.415Z,1.00
2022-11-29T10:03:31.892Z,1.80
2022-11-29T10:08:38.475Z,1.27
2022-11-29T10:11:35.346Z,1.83
2022-11-29T10:14:11.713Z,1.73
2022-11-29T10:16:48.243Z,1.20
2022-11-29T10:19:32.752Z,1.77
2022-11-29T10:22:20.971Z,1.30
2022-11-29T10:24:52.121Z,2.50
2022-11-29T10:27:23.887Z,2.05
2022-11-29T10:29:53.655Z,5.45
2022-11-29T10:32:23.333Z,2.58
2022-11-29T10:34:50.432Z,1.50
2022-11-29T10:37:22.088Z,2.50
2022-11-29T10:39:53.144Z,1.67
2022-11-29T10:42:41.821Z,2.95
2022-11-29T10:45:27.504Z,1.00
2022-11-29T10:48:14.518Z,2.67
2022-11-29T10:50:44.159Z,1.42
2022-11-29T10:53:36.047Z,1.67
2022-11-29T10:56:06.325Z,3.03
2022-11-29T10:58:33.518Z,2.35
2022-11-29T11:01:06.850Z,2.13
2022-11-29T11:03:33.562Z,2.95
2022-11-29T11:06:15.805Z,2.25
2022-11-29T11:08:46.099Z,1.40
2022-11-29T11:11:14.338Z,2.03
2022-11-29T11:13:42.080Z,1.63
2022-11-29T11:16:20.398Z,4.13
2022-11-29T11:18:48.189Z,1.60
2022-11-29T11:21:18.481Z,1.67
2022-11-29T11:23:53.172Z,1.35
2022-11-29T11:26:20.379Z,1.45
2022-11-29T11:28:46.928Z,1.17
2022-11-29T11:31:14.630Z,1.35
2022-11-29T11:33:45.807Z,1.92
2022-11-29T11:36:15.080Z,1.20
2022-11-29T11:39:12.450Z,1.35
2022-11-29T11:42:01.321Z,1.73
2022-11-29T11:44:53.483Z,1.98
2022-11-29T11:47:24.508Z,1.65
2022-11-29T11:49:56.070Z,3.03
2022-11-29T11:52:30.758Z,2.20
2022-11-29T11:55:02.702Z,1.80
2022-11-29T11:57:30.572Z,2.05
2022-11-29T12:00:05.005Z,12.55
2022-11-29T12:02:37.813Z,27.27
2022-11-29T12:05:30.706Z,23.08
2022-11-29T12:08:09.791Z,4.25
2022-11-29T12:10:40.461Z,6.80
2022-11-29T12:13:19.315Z,3.28
2022-11-29T12:15:50.020Z,2.65
2022-11-29T12:18:28.725Z,1.77
2022-11-29T12:21:26.555Z,2.50
2022-11-29T12:24:02.342Z,1.70
2022-11-29T12:26:56.344Z,0.90
2022-11-29T12:29:22.444Z,1.40
2022-11-29T12:31:58.246Z,1.30
2022-11-29T12:35:00.374Z,2.05
2022-11-29T12:37:49.692Z,2.15
2022-11-29T12:40:53.192Z,1.67
2022-11-29T12:43:38.508Z,10.23
2022-11-29T12:46:21.763Z,12.90
2022-11-29T12:49:24.128Z,4.38
2022-11-29T12:51:55.257Z,2.45
2022-11-29T12:54:30.662Z,0.80
2022-11-29T12:57:28.364Z,0.80
2022-11-29T13:00:33.000Z,1.25
2022-11-29T13:03:26.962Z,1.08
2022-11-29T13:06:25.680Z,0.90
2022-11-29T13:09:04.145Z,1.40
2022-11-29T13:11:36.270Z,1.20
2022-11-29T13:14:41.641Z,1.55
2022-11-29T13:17:14.003Z,1.25
2022-11-29T13:19:55.111Z,1.45
2022-11-29T13:22:44.341Z,1.73
2022-11-29T13:25:14.148Z,1.83
2022-11-29T13:27:47.219Z,2.08
2022-11-29T13:30:15.912Z,13.32
2022-11-29T13:33:01.250Z,2.08
2022-11-29T13:35:39.133Z,2.20
2022-11-29T13:38:37.295Z,0.93
2022-11-29T13:41:31.253Z,1.05
2022-11-29T13:44:35.152Z,2.17
2022-11-29T13:47:14.096Z,0.75
2022-11-29T13:49:54.810Z,1.27
2022-11-29T13:52:49.528Z,0.75
2022-11-29T13:55:29.530Z,0.60
2022-11-29T13:58:25.493Z,2.25
2022-11-29T14:00:52.278Z,5.18
2022-11-29T14:03:31.372Z,1.90
2022-11-29T14:06:09.894Z,1.45
2022-11-29T14:11:49.640Z,2.40
2022-11-29T14:14:39.066Z,1.33
2022-11-29T14:17:26.411Z,0.93
2022-11-29T14:20:25.294Z,1.50
2022-11-29T14:23:35.181Z,0.80
2022-11-29T14:26:01.926Z,1.10
2022-11-29T14:28:35.676Z,1.48
2022-11-29T14:31:03.621Z,4.72
2022-11-29T14:33:48.664Z,8.25
2022-11-29T14:36:15.432Z,7.60
2022-11-29T14:39:13.274Z,24.75
2022-11-29T14:42:01.317Z,2.95
2022-11-29T14:44:33.295Z,1.63
2022-11-29T14:47:30.099Z,1.17
2022-11-29T14:49:59.985Z,0.90
2022-11-29T14:52:35.905Z,1.05
2022-11-29T14:55:07.364Z,0.88
2022-11-29T14:57:55.346Z,0.80
2022-11-29T15:00:24.847Z,0.82
2022-11-29T15:03:12.993Z,0.85
2022-11-29T15:05:46.681Z,0.90
2022-11-29T15:08:55.074Z,0.70
2022-11-29T15:11:48.054Z,1.20
2022-11-29T15:14:38.570Z,1.27
2022-11-29T15:17:20.055Z,1.48
2022-11-29T15:19:47.331Z,2.92
2022-11-29T15:22:28.581Z,2.35
2022-11-29T15:25:05.851Z,0.90
2022-11-29T15:27:35.151Z,2.15
2022-11-29T15:30:21.573Z,2.15
2022-11-29T15:32:48.263Z,3.10
2022-11-29T15:35:20.540Z,2.72
2022-11-29T15:40:19.812Z,3.00
2022-11-29T15:42:52.797Z,1.88
2022-11-29T15:45:37.885Z,2.75
2022-11-29T15:48:27.492Z,1.15
2022-11-29T15:51:13.216Z,1.88
2022-11-29T15:53:47.142Z,2.42
2022-11-29T15:56:19.147Z,2.70
2022-11-29T15:58:48.268Z,1.65
2022-11-29T16:01:20.780Z,1.90
2022-11-29T16:03:50.761Z,0.77
2022-11-29T16:06:35.300Z,0.70
2022-11-29T16:09:03.220Z,0.80
2022-11-29T16:11:31.787Z,0.82
2022-11-29T16:14:19.176Z,1.92
2022-11-29T16:16:48.385Z,0.60
2022-11-29T16:19:37.770Z,0.50
2022-11-29T16:22:16.821Z,0.70
2022-11-29T16:24:54.060Z,0.88
2022-11-29T16:27:22.529Z,1.15
2022-11-29T16:29:51.728Z,0.98
2022-11-29T16:32:26.250Z,1.10
2022-11-29T16:34:53.763Z,2.13
2022-11-29T16:37:31.499Z,1.75
2022-11-29T16:40:01.371Z,2.20
2022-11-29T16:42:30.492Z,2.72
2022-11-29T16:45:31.229Z,3.78
2022-11-29T16:47:59.639Z,2.25
2022-11-29T16:50:28.744Z,2.40
2022-11-29T16:52:57.005Z,3.47
2022-11-29T16:55:24.472Z,2.45
2022-11-29T16:57:52.328Z,2.78
2022-11-29T17:00:23.854Z,3.65
2022-11-29T17:02:51.062Z,4.30
2022-11-29T17:05:17.981Z,3.30
2022-11-29T17:07:45.031Z,3.38
2022-11-29T17:10:17.534Z,4.38
2022-11-29T17:12:48.257Z,3.88
2022-11-29T17:15:15.263Z,3.83
2022-11-29T17:17:43.236Z,3.85
2022-11-29T17:20:12.843Z,4.25
2022-11-29T17:22:39.609Z,4.45
2022-11-29T17:25:06.771Z,4.60
2022-11-29T17:27:33.436Z,4.40
2022-11-29T17:30:00.107Z,4.20
2022-11-29T17:32:27.191Z,4.05
2022-11-29T17:34:54.278Z,4.78
2022-11-29T17:37:21.781Z,4.10
2022-11-29T17:39:49.186Z,4.00
2022-11-29T17:42:15.968Z,4.45
2022-11-29T17:44:42.624Z,4.07
2022-11-29T17:47:09.494Z,3.63
2022-11-29T17:49:36.224Z,4.05
2022-11-29T17:52:03.417Z,4.97
2022-11-29T17:54:33.086Z,3.80
2022-11-29T17:57:00.802Z,4.30
2022-11-29T17:59:27.826Z,4.00
2022-11-29T18:01:54.473Z,4.28
2022-11-29T18:04:21.629Z,4.45
2022-11-29T18:06:51.987Z,3.55
2022-11-29T18:09:19.854Z,5.63
2022-11-29T18:11:49.338Z,4.88
2022-11-29T18:14:23.535Z,3.92
2022-11-29T18:16:50.659Z,4.35
2022-11-29T18:19:20.248Z,3.70
2022-11-29T18:21:47.167Z,3.72
2022-11-29T18:24:14.798Z,3.30
2022-11-29T18:26:42.348Z,3.85
2022-11-29T18:29:09.708Z,2.22
2022-11-29T18:31:38.962Z,4.72
2022-11-29T18:34:11.648Z,2.03
2022-11-29T18:36:43.200Z,2.13
2022-11-29T18:39:14.268Z,1.38
2022-11-29T18:41:45.489Z,3.58
2022-11-29T18:44:14.083Z,2.53
2022-11-29T18:46:43.254Z,4.72
2022-11-29T18:49:12.659Z,3.28
2022-11-29T18:51:42.357Z,2.80
2022-11-29T18:54:09.209Z,3.33
2022-11-29T18:56:36.788Z,3.25
2022-11-29T18:59:08.187Z,3.80
2022-11-29T19:01:38.108Z,2.50
2022-11-29T19:04:05.649Z,2.50
2022-11-29T19:06:39.394Z,2.42
2022-11-29T19:09:11.170Z,1.45
2022-11-29T19:11:38.079Z,1.97
2022-11-29T19:14:13.558Z,1.65
2022-11-29T19:16:43.883Z,2.47
2022-11-29T19:19:11.938Z,2.47
2022-11-29T19:21:40.203Z,2.53
2022-11-29T19:24:14.304Z,3.78
2022-11-29T19:26:44.656Z,2.80
2022-11-29T19:29:12.998Z,3.50
2022-11-29T19:31:40.613Z,2.95
2022-11-29T19:34:07.583Z,2.95
2022-11-29T19:36:34.794Z,3.63
2022-11-29T19:39:02.817Z,2.90
2022-11-29T19:41:32.230Z,2.85
2022-11-29T19:44:01.391Z,3.15
2022-11-29T19:46:34.946Z,2.90
2022-11-29T19:49:02.758Z,3.40
2022-11-29T19:51:31.134Z,3.30
2022-11-29T19:54:00.959Z,3.05
2022-11-29T19:56:29.449Z,3.10
2022-11-29T19:58:56.515Z,3.55
2022-11-29T20:01:28.278Z,2.80
2022-11-29T20:03:56.219Z,3.83
2022-11-29T20:06:23.365Z,3.58
2022-11-29T20:08:50.484Z,4.18
2022-11-29T20:11:20.219Z,3.78
2022-11-29T20:13:55.389Z,3.88
2022-11-29T20:16:22.774Z,4.97
2022-11-29T20:18:51.998Z,4.10
2022-11-29T20:21:27.365Z,4.72
2022-11-29T20:23:58.724Z,5.38
2022-11-29T20:26:29.877Z,4.60
2022-11-29T20:28:56.759Z,6.15
2022-11-29T20:31:23.941Z,5.28
2022-11-29T20:33:55.189Z,5.13
2022-11-29T20:36:40.366Z,4.80
2022-11-29T20:39:37.477Z,5.07
2022-11-29T20:42:16.617Z,3.58
2022-11-29T20:45:08.520Z,3.55
2022-11-29T20:48:06.952Z,5.05
2022-11-29T20:50:54.205Z,4.60
2022-11-29T20:53:30.527Z,5.18
2022-11-29T20:55:57.762Z,4.07
2022-11-29T20:58:26.578Z,5.03
2022-11-29T21:00:54.511Z,9.77
2022-11-29T21:03:23.014Z,8.88
2022-11-29T21:05:51.362Z,6.05
2022-11-29T21:08:22.027Z,5.03
2022-11-29T21:10:51.059Z,3.40
2022-11-29T21:13:19.951Z,4.45
2022-11-29T21:15:47.762Z,4.85
2022-11-29T21:18:21.648Z,6.50
2022-11-29T21:21:03.265Z,5.07
2022-11-29T21:23:42.682Z,5.37
2022-11-29T21:26:21.414Z,5.32
2022-11-29T21:28:57.885Z,6.55
2022-11-29T21:31:25.436Z,5.63
2022-11-29T21:33:52.926Z,5.22
2022-11-29T21:36:19.590Z,5.55
2022-11-29T21:38:52.350Z,6.07
2022-11-29T21:41:21.768Z,5.57
2022-11-29T21:44:06.098Z,6.50
2022-11-29T21:46:34.861Z,7.00
2022-11-29T21:49:01.800Z,7.18
2022-11-29T21:51:28.588Z,7.70
2022-11-29T21:53:55.226Z,7.93
2022-11-29T21:56:22.055Z,7.72
2022-11-29T21:58:50.742Z,7.63
2022-11-29T22:01:19.977Z,7.80
2022-11-29T22:03:47.954Z,6.45
2022-11-29T22:06:18.867Z,6.85
2022-11-29T22:08:45.559Z,5.25
2022-11-29T22:11:30.681Z,5.80
2022-11-29T22:14:15.455Z,5.50
2022-11-29T22:16:52.347Z,4.43
2022-11-29T22:19:24.261Z,3.97
2022-11-29T22:21:53.985Z,3.03
2022-11-29T22:24:22.793Z,1.88
2022-11-29T22:26:51.244Z,1.92
2022-11-29T22:29:18.217Z,2.20
2022-11-29T22:31:47.053Z,1.15
2022-11-29T22:34:14.325Z,0.75
2022-11-29T22:36:41.713Z,0.90
2022-11-29T22:39:09.221Z,0.82
2022-11-29T22:41:38.820Z,0.55
2022-11-29T22:44:06.222Z,0.70
2022-11-29T22:46:35.517Z,0.60
2022-11-29T22:49:03.222Z,0.70
2022-11-29T22:51:36.372Z,0.60
2022-11-29T22:54:06.197Z,0.85
2022-11-29T22:56:35.582Z,0.57
2022-11-29T22:59:02.222Z,0.63
2022-11-29T23:01:30.476Z,0.80
2022-11-29T23:03:59.629Z,0.70
2022-11-29T23:06:29.383Z,1.50
2022-11-29T23:08:58.591Z,0.90
2022-11-29T23:11:27.848Z,0.80
2022-11-29T23:13:54.837Z,0.98
2022-11-29T23:16:24.772Z,0.95
2022-11-29T23:18:52.664Z,1.15
2022-11-29T23:21:31.988Z,2.05
2022-11-29T23:24:00.950Z,0.98
2022-11-29T23:26:37.592Z,2.03
2022-11-29T23:29:05.354Z,1.27
2022-11-29T23:31:33.064Z,1.30
2022-11-29T23:34:00.039Z,1.30
2022-11-29T23:36:26.799Z,1.30
2022-11-29T23:38:53.683Z,1.30
2022-11-29T23:41:20.508Z,1.55
2022-11-29T23:43:47.277Z,2.67
2022-11-29T23:46:19.228Z,2.00
2022-11-29T23:48:46.449Z,1.65
2022-11-29T23:51:13.705Z,1.83
2022-11-29T23:53:40.927Z,1.15
2022-11-29T23:56:16.490Z,0.75
2022-11-29T23:58:44.384Z,0.90
